KAEX/AEX METAR and TAF weather

Enter ICAO airport designator
Station Type Date Time Source
KAEX METAR 2022/06/30 01:53 UTC NOAA

KAEX 300153Z 17003KT 10SM CLR 27/22 A3007 RMK AO2 SLP184 T02670217


Station Type Date Time Source
KAEX Decoded METAR 2022/06/30 01:53 UTC NOAA

ALEXANDRIA INTERNATIONAL AIRPORT, LA, United States (KAEX) 31-33N 092-56W 27M
Jun 29, 2022 - 09:53 PM EDT / 2022.06.30 0153 UTC
Wind: from the S (170 degrees) at 3 MPH (3 KT):0
Visibility: 10 mile(s):0
Sky conditions: clear
Temperature: 80.1 F (26.7 C)
Dew Point: 71.1 F (21.7 C)
Relative Humidity: 74%
Pressure (altimeter): 30.07 in. Hg (1018 hPa)
ob: KAEX 300153Z 17003KT 10SM CLR 27/22 A3007 RMK AO2 SLP184 T02670217
cycle: 2

Station Type Date Time Source
KAEX TAF 2022/06/29 23:33 UTC NOAA

TAF
AMD KAEX 292230Z 2923/3018 09007KT P6SM VCTS SCT045CB BKN180
TEMPO 2923/2924 11013G18KT
FM300100 VRB05KT P6SM BKN250
FM301100 00000KT 6SM BR BKN015
FM301500 VRB03KT P6SM SCT025

Example: see airport list